sensor_id;sensor_type;location;lat;lon;timestamp;temperature;humidity
51619;DHT22;38518;53.164;5.430;2023-04-01T00:00:12;9.50;99.90
51619;DHT22;38518;53.164;5.430;2023-04-01T00:02:38;9.50;99.90
51619;DHT22;38518;53.164;5.430;2023-04-01T00:05:04;9.60;99.90
51619;DHT22;38518;53.164;5.430;2023-04-01T00:07:31;9.60;99.90
51619;DHT22;38518;53.164;5.430;2023-04-01T00:09:57;9.60;99.90
51619;DHT22;38518;53.164;5.430;2023-04-01T00:12:22;9.60;99.90
51619;DHT22;38518;53.164;5.430;2023-04-01T00:14:50;9.60;99.90
51619;DHT22;38518;53.164;5.430;2023-04-01T00:17:16;9.60;99.90
51619;DHT22;38518;53.164;5.430;2023-04-01T00:19:42;9.60;99.90
51619;DHT22;38518;53.164;5.430;2023-04-01T00:22:08;9.60;99.90
51619;DHT22;38518;53.164;5.430;2023-04-01T00:24:37;9.60;99.90
51619;DHT22;38518;53.164;5.430;2023-04-01T00:27:03;9.60;99.90
51619;DHT22;38518;53.164;5.430;2023-04-01T00:29:29;9.60;99.90
51619;DHT22;38518;53.164;5.430;2023-04-01T00:31:59;9.60;99.90
51619;DHT22;38518;53.164;5.430;2023-04-01T00:34:24;9.60;99.90
51619;DHT22;38518;53.164;5.430;2023-04-01T00:36:52;9.60;99.90
51619;DHT22;38518;53.164;5.430;2023-04-01T00:39:19;9.60;99.90
51619;DHT22;38518;53.164;5.430;2023-04-01T00:41:45;9.60;99.90
51619;DHT22;38518;53.164;5.430;2023-04-01T00:44:31;9.60;99.90
51619;DHT22;38518;53.164;5.430;2023-04-01T00:46:58;9.60;99.90
51619;DHT22;38518;53.164;5.430;2023-04-01T00:49:28;9.60;99.90
51619;DHT22;38518;53.164;5.430;2023-04-01T00:51:57;9.60;99.90
51619;DHT22;38518;53.164;5.430;2023-04-01T00:54:25;9.60;99.90
51619;DHT22;38518;53.164;5.430;2023-04-01T00:56:56;9.60;99.90
51619;DHT22;38518;53.164;5.430;2023-04-01T00:59:26;9.60;99.90
51619;DHT22;38518;53.164;5.430;2023-04-01T01:01:52;9.60;99.90
51619;DHT22;38518;53.164;5.430;2023-04-01T01:04:27;9.60;99.90
51619;DHT22;38518;53.164;5.430;2023-04-01T01:15:31;9.60;99.90
51619;DHT22;38518;53.164;5.430;2023-04-01T01:25:57;9.50;99.90
51619;DHT22;38518;53.164;5.430;2023-04-01T01:36:55;9.50;99.90
51619;DHT22;38518;53.164;5.430;2023-04-01T01:39:26;9.50;99.90
51619;DHT22;38518;53.164;5.430;2023-04-01T01:41:57;9.50;99.90
51619;DHT22;38518;53.164;5.430;2023-04-01T01:44:25;9.50;99.90
51619;DHT22;38518;53.164;5.430;2023-04-01T01:46:52;9.50;99.90
51619;DHT22;38518;53.164;5.430;2023-04-01T01:49:19;9.50;99.90
51619;DHT22;38518;53.164;5.430;2023-04-01T01:51:45;9.50;99.90
51619;DHT22;38518;53.164;5.430;2023-04-01T01:54:16;9.50;99.90
51619;DHT22;38518;53.164;5.430;2023-04-01T01:56:45;9.50;99.90
51619;DHT22;38518;53.164;5.430;2023-04-01T01:59:13;9.50;99.90
51619;DHT22;38518;53.164;5.430;2023-04-01T02:01:42;9.50;99.90
51619;DHT22;38518;53.164;5.430;2023-04-01T02:04:11;9.50;99.90
51619;DHT22;38518;53.164;5.430;2023-04-01T02:06:41;9.50;99.90
51619;DHT22;38518;53.164;5.430;2023-04-01T02:09:10;9.40;99.90
51619;DHT22;38518;53.164;5.430;2023-04-01T02:11:47;9.50;99.90
51619;DHT22;38518;53.164;5.430;2023-04-01T02:14:17;9.50;99.90
51619;DHT22;38518;53.164;5.430;2023-04-01T02:19:12;9.40;99.90
51619;DHT22;38518;53.164;5.430;2023-04-01T02:21:40;9.40;99.90
51619;DHT22;38518;53.164;5.430;2023-04-01T02:24:11;9.40;99.90
51619;DHT22;38518;53.164;5.430;2023-04-01T02:26:38;9.40;99.90
51619;DHT22;38518;53.164;5.430;2023-04-01T02:29:05;9.40;99.90
51619;DHT22;38518;53.164;5.430;2023-04-01T02:31:32;9.40;99.90
51619;DHT22;38518;53.164;5.430;2023-04-01T02:33:58;9.40;99.90
51619;DHT22;38518;53.164;5.430;2023-04-01T02:36:24;9.40;99.90
51619;DHT22;38518;53.164;5.430;2023-04-01T02:38:51;9.40;99.90
51619;DHT22;38518;53.164;5.430;2023-04-01T02:41:17;9.40;99.90
51619;DHT22;38518;53.164;5.430;2023-04-01T02:43:43;9.40;99.90
51619;DHT22;38518;53.164;5.430;2023-04-01T02:46:09;9.40;99.90
51619;DHT22;38518;53.164;5.430;2023-04-01T02:48:35;9.40;99.90
51619;DHT22;38518;53.164;5.430;2023-04-01T02:51:02;9.40;1.00
51619;DHT22;38518;53.164;5.430;2023-04-01T02:53:29;9.40;99.90
51619;DHT22;38518;53.164;5.430;2023-04-01T02:55:55;9.40;1.00
51619;DHT22;38518;53.164;5.430;2023-04-01T02:58:21;9.40;1.00
51619;DHT22;38518;53.164;5.430;2023-04-01T03:00:47;9.40;1.00
51619;DHT22;38518;53.164;5.430;2023-04-01T03:03:12;9.40;1.00
51619;DHT22;38518;53.164;5.430;2023-04-01T03:05:39;9.40;99.90
51619;DHT22;38518;53.164;5.430;2023-04-01T03:08:05;9.40;99.90
51619;DHT22;38518;53.164;5.430;2023-04-01T03:10:31;9.40;1.00
51619;DHT22;38518;53.164;5.430;2023-04-01T03:12:57;9.40;99.90
51619;DHT22;38518;53.164;5.430;2023-04-01T03:15:23;9.30;99.90
51619;DHT22;38518;53.164;5.430;2023-04-01T03:17:48;9.40;99.90
51619;DHT22;38518;53.164;5.430;2023-04-01T03:20:15;9.40;99.90
51619;DHT22;38518;53.164;5.430;2023-04-01T03:22:41;9.40;99.90
51619;DHT22;38518;53.164;5.430;2023-04-01T03:25:07;9.40;1.00
51619;DHT22;38518;53.164;5.430;2023-04-01T03:27:34;9.30;99.90
51619;DHT22;38518;53.164;5.430;2023-04-01T03:30:02;9.30;99.90
51619;DHT22;38518;53.164;5.430;2023-04-01T03:32:28;9.40;1.00
51619;DHT22;38518;53.164;5.430;2023-04-01T03:34:54;9.40;99.90
51619;DHT22;38518;53.164;5.430;2023-04-01T03:37:19;9.40;99.90
51619;DHT22;38518;53.164;5.430;2023-04-01T03:39:45;9.40;1.00
51619;DHT22;38518;53.164;5.430;2023-04-01T03:42:12;9.40;1.00
51619;DHT22;38518;53.164;5.430;2023-04-01T03:44:37;9.40;1.00
51619;DHT22;38518;53.164;5.430;2023-04-01T03:47:03;9.40;1.00
51619;DHT22;38518;53.164;5.430;2023-04-01T03:49:29;9.40;1.00
51619;DHT22;38518;53.164;5.430;2023-04-01T03:51:54;9.40;1.00
51619;DHT22;38518;53.164;5.430;2023-04-01T03:54:20;9.40;1.00
51619;DHT22;38518;53.164;5.430;2023-04-01T03:56:46;9.40;1.00
51619;DHT22;38518;53.164;5.430;2023-04-01T03:59:13;9.40;1.00
51619;DHT22;38518;53.164;5.430;2023-04-01T04:01:40;9.30;1.00
51619;DHT22;38518;53.164;5.430;2023-04-01T04:04:06;9.40;1.00
51619;DHT22;38518;53.164;5.430;2023-04-01T04:06:32;9.40;1.00
51619;DHT22;38518;53.164;5.430;2023-04-01T04:08:58;9.40;1.00
51619;DHT22;38518;53.164;5.430;2023-04-01T04:11:24;9.40;1.00
51619;DHT22;38518;53.164;5.430;2023-04-01T04:13:50;9.40;1.00
51619;DHT22;38518;53.164;5.430;2023-04-01T04:16:16;9.40;1.00
51619;DHT22;38518;53.164;5.430;2023-04-01T04:18:42;9.40;1.00
51619;DHT22;38518;53.164;5.430;2023-04-01T04:21:12;9.40;1.00
51619;DHT22;38518;53.164;5.430;2023-04-01T04:23:39;9.40;1.00
51619;DHT22;38518;53.164;5.430;2023-04-01T04:26:07;9.40;1.00
51619;DHT22;38518;53.164;5.430;2023-04-01T04:28:33;9.40;1.00
51619;DHT22;38518;53.164;5.430;2023-04-01T04:31:00;9.40;1.00
51619;DHT22;38518;53.164;5.430;2023-04-01T04:33:26;9.40;1.00
51619;DHT22;38518;53.164;5.430;2023-04-01T04:35:55;9.40;1.00
51619;DHT22;38518;53.164;5.430;2023-04-01T04:38:21;9.30;99.90
51619;DHT22;38518;53.164;5.430;2023-04-01T04:40:46;9.30;99.90
51619;DHT22;38518;53.164;5.430;2023-04-01T04:43:14;9.30;99.90
51619;DHT22;38518;53.164;5.430;2023-04-01T04:45:40;9.30;99.90
51619;DHT22;38518;53.164;5.430;2023-04-01T04:48:08;9.30;99.90
51619;DHT22;38518;53.164;5.430;2023-04-01T04:50:34;9.30;99.90
51619;DHT22;38518;53.164;5.430;2023-04-01T04:52:59;9.30;99.90
51619;DHT22;38518;53.164;5.430;2023-04-01T04:55:25;9.30;1.00
51619;DHT22;38518;53.164;5.430;2023-04-01T04:57:51;9.30;1.00
51619;DHT22;38518;53.164;5.430;2023-04-01T05:00:17;9.30;1.00
51619;DHT22;38518;53.164;5.430;2023-04-01T05:02:43;9.30;1.00
51619;DHT22;38518;53.164;5.430;2023-04-01T05:05:09;9.30;1.00
51619;DHT22;38518;53.164;5.430;2023-04-01T05:07:36;9.30;1.00
51619;DHT22;38518;53.164;5.430;2023-04-01T05:10:02;9.40;1.00
51619;DHT22;38518;53.164;5.430;2023-04-01T05:12:27;9.30;1.00
51619;DHT22;38518;53.164;5.430;2023-04-01T05:14:53;9.30;1.00
51619;DHT22;38518;53.164;5.430;2023-04-01T05:17:19;9.30;1.00
51619;DHT22;38518;53.164;5.430;2023-04-01T05:19:45;9.30;1.00
51619;DHT22;38518;53.164;5.430;2023-04-01T05:22:10;9.30;1.00
51619;DHT22;38518;53.164;5.430;2023-04-01T05:24:36;9.30;1.00
51619;DHT22;38518;53.164;5.430;2023-04-01T05:27:02;9.30;1.00
51619;DHT22;38518;53.164;5.430;2023-04-01T05:29:27;9.30;1.00
51619;DHT22;38518;53.164;5.430;2023-04-01T05:31:53;9.30;1.00
51619;DHT22;38518;53.164;5.430;2023-04-01T05:34:19;9.30;1.00
51619;DHT22;38518;53.164;5.430;2023-04-01T05:36:45;9.30;1.00
51619;DHT22;38518;53.164;5.430;2023-04-01T05:39:11;9.30;1.00
51619;DHT22;38518;53.164;5.430;2023-04-01T05:41:37;9.30;1.00
51619;DHT22;38518;53.164;5.430;2023-04-01T05:44:04;9.30;1.00
51619;DHT22;38518;53.164;5.430;2023-04-01T05:46:31;9.30;1.00
51619;DHT22;38518;53.164;5.430;2023-04-01T05:48:57;9.30;1.00
51619;DHT22;38518;53.164;5.430;2023-04-01T05:51:22;9.30;1.00
51619;DHT22;38518;53.164;5.430;2023-04-01T05:53:48;9.40;1.00
51619;DHT22;38518;53.164;5.430;2023-04-01T05:56:14;9.30;1.00
51619;DHT22;38518;53.164;5.430;2023-04-01T05:58:40;9.30;1.00
51619;DHT22;38518;53.164;5.430;2023-04-01T06:01:08;9.30;1.00
51619;DHT22;38518;53.164;5.430;2023-04-01T06:03:35;9.30;1.00
51619;DHT22;38518;53.164;5.430;2023-04-01T06:06:01;9.30;1.00
51619;DHT22;38518;53.164;5.430;2023-04-01T06:08:30;9.30;1.00
51619;DHT22;38518;53.164;5.430;2023-04-01T06:22:27;9.20;1.00
51619;DHT22;38518;53.164;5.430;2023-04-01T06:30:47;9.20;1.00
51619;DHT22;38518;53.164;5.430;2023-04-01T06:33:26;9.20;1.00
51619;DHT22;38518;53.164;5.430;2023-04-01T06:41:44;9.30;1.00
51619;DHT22;38518;53.164;5.430;2023-04-01T06:47:36;9.30;1.00
51619;DHT22;38518;53.164;5.430;2023-04-01T06:56:00;9.40;1.00
51619;DHT22;38518;53.164;5.430;2023-04-01T06:59:08;9.30;1.00
51619;DHT22;38518;53.164;5.430;2023-04-01T07:01:40;9.40;1.00
51619;DHT22;38518;53.164;5.430;2023-04-01T07:04:37;9.40;1.00
51619;DHT22;38518;53.164;5.430;2023-04-01T07:07:27;9.50;1.00
51619;DHT22;38518;53.164;5.430;2023-04-01T07:09:56;9.40;1.00
51619;DHT22;38518;53.164;5.430;2023-04-01T07:15:18;9.50;1.00
51619;DHT22;38518;53.164;5.430;2023-04-01T07:17:47;9.60;1.00
51619;DHT22;38518;53.164;5.430;2023-04-01T07:20:24;9.60;1.00
51619;DHT22;38518;53.164;5.430;2023-04-01T07:22:54;9.70;1.00
51619;DHT22;38518;53.164;5.430;2023-04-01T07:25:35;9.70;1.00
51619;DHT22;38518;53.164;5.430;2023-04-01T07:28:11;9.70;1.00
51619;DHT22;38518;53.164;5.430;2023-04-01T07:31:13;9.60;1.00
51619;DHT22;38518;53.164;5.430;2023-04-01T07:36:24;9.70;1.00
51619;DHT22;38518;53.164;5.430;2023-04-01T07:47:45;9.70;1.00
51619;DHT22;38518;53.164;5.430;2023-04-01T07:53:18;9.70;1.00
51619;DHT22;38518;53.164;5.430;2023-04-01T07:56:11;9.70;1.00
51619;DHT22;38518;53.164;5.430;2023-04-01T07:58:56;9.70;1.00
51619;DHT22;38518;53.164;5.430;2023-04-01T08:13:03;9.80;99.90
51619;DHT22;38518;53.164;5.430;2023-04-01T08:15:55;9.80;99.90
51619;DHT22;38518;53.164;5.430;2023-04-01T08:21:27;9.80;99.90
51619;DHT22;38518;53.164;5.430;2023-04-01T08:23:56;9.90;99.90
51619;DHT22;38518;53.164;5.430;2023-04-01T08:26:26;10.00;99.90
51619;DHT22;38518;53.164;5.430;2023-04-01T08:29:10;10.00;99.90
51619;DHT22;38518;53.164;5.430;2023-04-01T08:34:28;10.00;99.90
51619;DHT22;38518;53.164;5.430;2023-04-01T08:37:08;10.00;99.90
51619;DHT22;38518;53.164;5.430;2023-04-01T08:39:53;10.10;99.90
51619;DHT22;38518;53.164;5.430;2023-04-01T08:45:42;10.20;99.90
51619;DHT22;38518;53.164;5.430;2023-04-01T08:48:28;10.30;99.90
51619;DHT22;38518;53.164;5.430;2023-04-01T08:53:57;10.40;99.90
51619;DHT22;38518;53.164;5.430;2023-04-01T09:02:45;10.50;99.90
51619;DHT22;38518;53.164;5.430;2023-04-01T09:08:27;10.70;92.70
51619;DHT22;38518;53.164;5.430;2023-04-01T09:19:43;11.20;1.00
51619;DHT22;38518;53.164;5.430;2023-04-01T09:22:20;11.30;1.00
51619;DHT22;38518;53.164;5.430;2023-04-01T09:25:20;11.50;1.00
51619;DHT22;38518;53.164;5.430;2023-04-01T09:33:48;11.80;99.90
51619;DHT22;38518;53.164;5.430;2023-04-01T09:39:24;11.70;76.00
51619;DHT22;38518;53.164;5.430;2023-04-01T09:44:37;11.40;1.00
51619;DHT22;38518;53.164;5.430;2023-04-01T09:52:57;11.20;1.00
51619;DHT22;38518;53.164;5.430;2023-04-01T09:58:09;11.40;1.00
51619;DHT22;38518;53.164;5.430;2023-04-01T10:06:46;11.20;99.90
51619;DHT22;38518;53.164;5.430;2023-04-01T10:26:21;11.80;99.90
51619;DHT22;38518;53.164;5.430;2023-04-01T10:45:52;12.00;99.90
51619;DHT22;38518;53.164;5.430;2023-04-01T10:56:59;11.90;99.90
51619;DHT22;38518;53.164;5.430;2023-04-01T11:08:04;12.00;99.90
51619;DHT22;38518;53.164;5.430;2023-04-01T11:33:02;12.50;99.20
51619;DHT22;38518;53.164;5.430;2023-04-01T11:41:22;12.00;99.90
51619;DHT22;38518;53.164;5.430;2023-04-01T11:44:15;11.90;99.90
51619;DHT22;38518;53.164;5.430;2023-04-01T11:55:23;11.50;99.90
51619;DHT22;38518;53.164;5.430;2023-04-01T12:00:47;11.50;99.90
51619;DHT22;38518;53.164;5.430;2023-04-01T12:12:01;11.20;99.90
51619;DHT22;38518;53.164;5.430;2023-04-01T12:14:54;11.10;99.90
51619;DHT22;38518;53.164;5.430;2023-04-01T12:17:50;10.80;97.80
51619;DHT22;38518;53.164;5.430;2023-04-01T12:20:42;10.80;99.90
51619;DHT22;38518;53.164;5.430;2023-04-01T12:23:38;10.90;99.90
51619;DHT22;38518;53.164;5.430;2023-04-01T12:29:08;11.00;99.90
51619;DHT22;38518;53.164;5.430;2023-04-01T12:40:06;11.20;99.90
51619;DHT22;38518;53.164;5.430;2023-04-01T12:45:18;11.20;99.90
51619;DHT22;38518;53.164;5.430;2023-04-01T12:53:14;11.00;99.90
51619;DHT22;38518;53.164;5.430;2023-04-01T12:55:45;11.00;98.50
51619;DHT22;38518;53.164;5.430;2023-04-01T12:58:54;11.00;99.90
51619;DHT22;38518;53.164;5.430;2023-04-01T13:07:01;10.70;99.90
51619;DHT22;38518;53.164;5.430;2023-04-01T13:10:01;10.70;99.90
51619;DHT22;38518;53.164;5.430;2023-04-01T13:15:43;10.50;96.40
51619;DHT22;38518;53.164;5.430;2023-04-01T13:21:14;10.50;99.90
51619;DHT22;38518;53.164;5.430;2023-04-01T13:26:26;10.50;99.90
51619;DHT22;38518;53.164;5.430;2023-04-01T13:36:42;10.30;99.90
51619;DHT22;38518;53.164;5.430;2023-04-01T13:39:19;10.30;99.90
51619;DHT22;38518;53.164;5.430;2023-04-01T13:42:09;10.40;99.90
51619;DHT22;38518;53.164;5.430;2023-04-01T13:44:42;10.40;99.90
51619;DHT22;38518;53.164;5.430;2023-04-01T13:53:29;10.60;99.90
51619;DHT22;38518;53.164;5.430;2023-04-01T14:01:44;10.30;97.20
51619;DHT22;38518;53.164;5.430;2023-04-01T14:07:08;10.20;99.90
51619;DHT22;38518;53.164;5.430;2023-04-01T14:14:56;10.30;95.90
51619;DHT22;38518;53.164;5.430;2023-04-01T14:18:01;10.40;99.90
51619;DHT22;38518;53.164;5.430;2023-04-01T14:29:24;10.10;86.90
51619;DHT22;38518;53.164;5.430;2023-04-01T14:50:53;9.70;99.90
51619;DHT22;38518;53.164;5.430;2023-04-01T14:55:51;9.50;99.90
51619;DHT22;38518;53.164;5.430;2023-04-01T14:58:19;9.30;99.70
51619;DHT22;38518;53.164;5.430;2023-04-01T15:00:54;9.30;99.90
51619;DHT22;38518;53.164;5.430;2023-04-01T15:06:45;9.10;99.90
51619;DHT22;38518;53.164;5.430;2023-04-01T15:15:11;8.90;99.90
51619;DHT22;38518;53.164;5.430;2023-04-01T15:29:01;8.80;99.90
51619;DHT22;38518;53.164;5.430;2023-04-01T15:39:56;8.60;99.90
51619;DHT22;38518;53.164;5.430;2023-04-01T15:48:29;8.40;99.90
51619;DHT22;38518;53.164;5.430;2023-04-01T15:59:14;8.30;99.90
51619;DHT22;38518;53.164;5.430;2023-04-01T16:02:00;8.30;99.90
51619;DHT22;38518;53.164;5.430;2023-04-01T16:07:21;8.30;99.90
51619;DHT22;38518;53.164;5.430;2023-04-01T16:10:05;8.30;99.90
51619;DHT22;38518;53.164;5.430;2023-04-01T16:15:44;8.20;99.90
51619;DHT22;38518;53.164;5.430;2023-04-01T16:23:56;8.10;99.90
51619;DHT22;38518;53.164;5.430;2023-04-01T16:29:05;8.00;99.90
51619;DHT22;38518;53.164;5.430;2023-04-01T16:37:21;7.90;99.90
51619;DHT22;38518;53.164;5.430;2023-04-01T16:40:23;7.80;99.90
51619;DHT22;38518;53.164;5.430;2023-04-01T16:42:53;7.80;99.90
51619;DHT22;38518;53.164;5.430;2023-04-01T16:50:52;7.80;99.90
51619;DHT22;38518;53.164;5.430;2023-04-01T16:53:36;7.70;99.90
51619;DHT22;38518;53.164;5.430;2023-04-01T16:56:20;7.70;99.90
51619;DHT22;38518;53.164;5.430;2023-04-01T17:01:43;7.50;99.90
51619;DHT22;38518;53.164;5.430;2023-04-01T17:07:01;7.50;99.90
51619;DHT22;38518;53.164;5.430;2023-04-01T17:12:46;7.50;99.90
51619;DHT22;38518;53.164;5.430;2023-04-01T17:15:28;7.50;99.90
51619;DHT22;38518;53.164;5.430;2023-04-01T17:26:13;7.30;99.90
51619;DHT22;38518;53.164;5.430;2023-04-01T17:28:52;7.30;99.90
51619;DHT22;38518;53.164;5.430;2023-04-01T17:34:21;7.30;99.90
51619;DHT22;38518;53.164;5.430;2023-04-01T17:42:46;7.30;99.90
51619;DHT22;38518;53.164;5.430;2023-04-01T17:56:21;7.30;99.90
51619;DHT22;38518;53.164;5.430;2023-04-01T17:59:03;7.20;99.90
51619;DHT22;38518;53.164;5.430;2023-04-01T18:09:43;7.00;99.90
51619;DHT22;38518;53.164;5.430;2023-04-01T18:23:29;6.90;99.90
51619;DHT22;38518;53.164;5.430;2023-04-01T18:26:13;6.90;99.90
51619;DHT22;38518;53.164;5.430;2023-04-01T18:28:54;6.90;99.90
51619;DHT22;38518;53.164;5.430;2023-04-01T18:31:25;6.90;99.90
51619;DHT22;38518;53.164;5.430;2023-04-01T18:34:07;6.90;99.90
51619;DHT22;38518;53.164;5.430;2023-04-01T18:39:17;6.90;99.90
51619;DHT22;38518;53.164;5.430;2023-04-01T18:44:51;6.80;99.90
51619;DHT22;38518;53.164;5.430;2023-04-01T18:55:59;6.80;99.90
51619;DHT22;38518;53.164;5.430;2023-04-01T18:58:45;6.70;99.90
51619;DHT22;38518;53.164;5.430;2023-04-01T19:04:30;6.80;99.90
51619;DHT22;38518;53.164;5.430;2023-04-01T19:07:17;6.70;99.90
51619;DHT22;38518;53.164;5.430;2023-04-01T19:09:46;6.70;99.90
51619;DHT22;38518;53.164;5.430;2023-04-01T19:12:27;6.70;99.90
51619;DHT22;38518;53.164;5.430;2023-04-01T19:15:14;6.70;99.90
51619;DHT22;38518;53.164;5.430;2023-04-01T19:21:12;6.70;99.90
51619;DHT22;38518;53.164;5.430;2023-04-01T19:23:53;6.60;99.90
51619;DHT22;38518;53.164;5.430;2023-04-01T19:29:43;6.70;99.90
51619;DHT22;38518;53.164;5.430;2023-04-01T19:46:55;6.50;99.90
51619;DHT22;38518;53.164;5.430;2023-04-01T19:52:32;6.50;99.90
51619;DHT22;38518;53.164;5.430;2023-04-01T19:58:06;6.50;99.90
51619;DHT22;38518;53.164;5.430;2023-04-01T20:00:40;6.50;99.90
51619;DHT22;38518;53.164;5.430;2023-04-01T20:03:48;6.50;99.90
51619;DHT22;38518;53.164;5.430;2023-04-01T20:06:35;6.50;99.90
51619;DHT22;38518;53.164;5.430;2023-04-01T20:09:09;6.40;99.90
51619;DHT22;38518;53.164;5.430;2023-04-01T20:16:47;6.30;99.90
51619;DHT22;38518;53.164;5.430;2023-04-01T20:22:23;6.30;99.90
51619;DHT22;38518;53.164;5.430;2023-04-01T20:24:59;6.30;99.90
51619;DHT22;38518;53.164;5.430;2023-04-01T20:27:36;6.30;99.90
51619;DHT22;38518;53.164;5.430;2023-04-01T20:35:44;6.30;99.90
51619;DHT22;38518;53.164;5.430;2023-04-01T20:38:40;6.30;99.90
51619;DHT22;38518;53.164;5.430;2023-04-01T20:41:23;6.30;99.90
51619;DHT22;38518;53.164;5.430;2023-04-01T20:44:14;6.30;99.90
51619;DHT22;38518;53.164;5.430;2023-04-01T20:46:53;6.20;99.90
51619;DHT22;38518;53.164;5.430;2023-04-01T20:52:01;6.20;99.90
51619;DHT22;38518;53.164;5.430;2023-04-01T20:54:40;6.20;99.90
51619;DHT22;38518;53.164;5.430;2023-04-01T21:05:45;6.20;99.90
51619;DHT22;38518;53.164;5.430;2023-04-01T21:08:40;6.10;99.90
51619;DHT22;38518;53.164;5.430;2023-04-01T21:17:04;6.10;99.90
51619;DHT22;38518;53.164;5.430;2023-04-01T21:31:12;6.00;99.90
51619;DHT22;38518;53.164;5.430;2023-04-01T21:42:02;5.80;99.90
51619;DHT22;38518;53.164;5.430;2023-04-01T21:47:38;5.90;94.50
51619;DHT22;38518;53.164;5.430;2023-04-01T21:58:39;5.80;99.00
51619;DHT22;38518;53.164;5.430;2023-04-01T22:04:37;5.80;95.70
51619;DHT22;38518;53.164;5.430;2023-04-01T22:15:08;5.60;99.90
51619;DHT22;38518;53.164;5.430;2023-04-01T22:20:36;5.70;92.50
51619;DHT22;38518;53.164;5.430;2023-04-01T22:31:15;5.60;90.60
51619;DHT22;38518;53.164;5.430;2023-04-01T22:43:47;5.40;85.10
51619;DHT22;38518;53.164;5.430;2023-04-01T22:46:22;5.80;80.30
51619;DHT22;38518;53.164;5.430;2023-04-01T22:49:36;5.50;81.80
51619;DHT22;38518;53.164;5.430;2023-04-01T22:51:47;5.50;89.70
51619;DHT22;38518;53.164;5.430;2023-04-01T22:54:29;5.60;71.10
51619;DHT22;38518;53.164;5.430;2023-04-01T22:59:54;5.50;73.10
51619;DHT22;38518;53.164;5.430;2023-04-01T23:02:29;5.50;78.80
51619;DHT22;38518;53.164;5.430;2023-04-01T23:04:58;5.50;63.90
51619;DHT22;38518;53.164;5.430;2023-04-01T23:07:45;5.40;61.80
51619;DHT22;38518;53.164;5.430;2023-04-01T23:10:28;5.40;65.20
51619;DHT22;38518;53.164;5.430;2023-04-01T23:12:58;5.30;54.40
51619;DHT22;38518;53.164;5.430;2023-04-01T23:15:27;5.50;55.50
51619;DHT22;38518;53.164;5.430;2023-04-01T23:18:11;5.10;58.10
51619;DHT22;38518;53.164;5.430;2023-04-01T23:21:03;5.20;45.60
51619;DHT22;38518;53.164;5.430;2023-04-01T23:26:40;5.40;57.70
51619;DHT22;38518;53.164;5.430;2023-04-01T23:29:15;5.20;60.20
51619;DHT22;38518;53.164;5.430;2023-04-01T23:31:45;5.30;61.40
51619;DHT22;38518;53.164;5.430;2023-04-01T23:34:25;5.10;51.00
51619;DHT22;38518;53.164;5.430;2023-04-01T23:37:08;5.00;55.80
51619;DHT22;38518;53.164;5.430;2023-04-01T23:39:40;5.10;54.20
51619;DHT22;38518;53.164;5.430;2023-04-01T23:42:20;5.50;59.90
51619;DHT22;38518;53.164;5.430;2023-04-01T23:44:49;4.80;50.40
51619;DHT22;38518;53.164;5.430;2023-04-01T23:47:19;4.90;50.00
51619;DHT22;38518;53.164;5.430;2023-04-01T23:49:48;4.60;45.40
51619;DHT22;38518;53.164;5.430;2023-04-01T23:52:23;4.70;52.60
51619;DHT22;38518;53.164;5.430;2023-04-01T23:54:54;4.80;50.60
51619;DHT22;38518;53.164;5.430;2023-04-01T23:57:33;4.40;50.50
